sensor_id;sensor_type;location;lat;lon;timestamp;temperature;humidity
9987;DHT22;5033;46.310;11.214;2022-11-02T00:01:12;11.00;99.90
9987;DHT22;5033;46.310;11.214;2022-11-02T00:03:40;10.90;99.90
9987;DHT22;5033;46.310;11.214;2022-11-02T00:06:08;10.90;99.90
9987;DHT22;5033;46.310;11.214;2022-11-02T00:08:35;10.90;99.90
9987;DHT22;5033;46.310;11.214;2022-11-02T00:11:02;10.90;99.90
9987;DHT22;5033;46.310;11.214;2022-11-02T00:13:30;10.90;99.90
9987;DHT22;5033;46.310;11.214;2022-11-02T00:16:00;10.90;99.90
9987;DHT22;5033;46.310;11.214;2022-11-02T00:18:31;10.90;99.90
9987;DHT22;5033;46.310;11.214;2022-11-02T00:20:59;10.80;99.90
9987;DHT22;5033;46.310;11.214;2022-11-02T00:23:27;10.70;99.90
9987;DHT22;5033;46.310;11.214;2022-11-02T00:25:55;10.70;99.90
9987;DHT22;5033;46.310;11.214;2022-11-02T00:28:23;10.70;99.90
9987;DHT22;5033;46.310;11.214;2022-11-02T00:30:52;10.70;99.90
9987;DHT22;5033;46.310;11.214;2022-11-02T00:33:20;10.70;99.90
9987;DHT22;5033;46.310;11.214;2022-11-02T00:35:49;10.70;99.90
9987;DHT22;5033;46.310;11.214;2022-11-02T00:38:16;10.70;99.90
9987;DHT22;5033;46.310;11.214;2022-11-02T00:40:44;10.70;99.90
9987;DHT22;5033;46.310;11.214;2022-11-02T00:43:11;10.70;99.90
9987;DHT22;5033;46.310;11.214;2022-11-02T00:45:39;10.70;99.90
9987;DHT22;5033;46.310;11.214;2022-11-02T00:48:06;10.70;99.90
9987;DHT22;5033;46.310;11.214;2022-11-02T00:50:34;10.70;99.90
9987;DHT22;5033;46.310;11.214;2022-11-02T00:53:03;10.70;99.90
9987;DHT22;5033;46.310;11.214;2022-11-02T00:55:30;10.70;99.90
9987;DHT22;5033;46.310;11.214;2022-11-02T00:57:58;10.70;99.90
9987;DHT22;5033;46.310;11.214;2022-11-02T01:00:25;10.70;99.90
9987;DHT22;5033;46.310;11.214;2022-11-02T01:02:52;10.70;99.90
9987;DHT22;5033;46.310;11.214;2022-11-02T01:05:19;10.70;99.90
9987;DHT22;5033;46.310;11.214;2022-11-02T01:07:47;10.70;99.90
9987;DHT22;5033;46.310;11.214;2022-11-02T01:10:16;10.70;99.90
9987;DHT22;5033;46.310;11.214;2022-11-02T01:12:44;10.70;99.90
9987;DHT22;5033;46.310;11.214;2022-11-02T01:15:11;10.70;99.90
9987;DHT22;5033;46.310;11.214;2022-11-02T01:17:39;10.60;99.90
9987;DHT22;5033;46.310;11.214;2022-11-02T01:20:09;10.60;99.90
9987;DHT22;5033;46.310;11.214;2022-11-02T01:22:36;10.60;99.90
9987;DHT22;5033;46.310;11.214;2022-11-02T01:25:04;10.60;99.90
9987;DHT22;5033;46.310;11.214;2022-11-02T01:27:34;10.60;99.90
9987;DHT22;5033;46.310;11.214;2022-11-02T01:30:02;10.60;99.90
9987;DHT22;5033;46.310;11.214;2022-11-02T01:32:30;10.50;99.90
9987;DHT22;5033;46.310;11.214;2022-11-02T01:34:57;10.50;99.90
9987;DHT22;5033;46.310;11.214;2022-11-02T01:37:25;10.50;99.90
9987;DHT22;5033;46.310;11.214;2022-11-02T01:39:52;10.50;99.90
9987;DHT22;5033;46.310;11.214;2022-11-02T01:42:21;10.50;99.90
9987;DHT22;5033;46.310;11.214;2022-11-02T01:44:51;10.50;99.90
9987;DHT22;5033;46.310;11.214;2022-11-02T01:47:22;10.50;99.90
9987;DHT22;5033;46.310;11.214;2022-11-02T01:49:55;10.50;99.90
9987;DHT22;5033;46.310;11.214;2022-11-02T01:52:26;10.50;99.90
9987;DHT22;5033;46.310;11.214;2022-11-02T01:54:57;10.50;99.90
9987;DHT22;5033;46.310;11.214;2022-11-02T01:57:27;10.50;99.90
9987;DHT22;5033;46.310;11.214;2022-11-02T01:59:58;10.50;99.90
9987;DHT22;5033;46.310;11.214;2022-11-02T02:02:27;10.40;99.90
9987;DHT22;5033;46.310;11.214;2022-11-02T02:04:59;10.40;99.90
9987;DHT22;5033;46.310;11.214;2022-11-02T02:07:30;10.40;99.90
9987;DHT22;5033;46.310;11.214;2022-11-02T02:09:59;10.40;99.90
9987;DHT22;5033;46.310;11.214;2022-11-02T02:12:27;10.40;99.90
9987;DHT22;5033;46.310;11.214;2022-11-02T02:14:57;10.40;99.90
9987;DHT22;5033;46.310;11.214;2022-11-02T02:17:31;10.40;99.90
9987;DHT22;5033;46.310;11.214;2022-11-02T02:20:04;10.40;99.90
9987;DHT22;5033;46.310;11.214;2022-11-02T02:22:48;10.40;99.90
9987;DHT22;5033;46.310;11.214;2022-11-02T02:25:44;10.30;99.90
9987;DHT22;5033;46.310;11.214;2022-11-02T02:28:19;10.30;99.90
9987;DHT22;5033;46.310;11.214;2022-11-02T02:30:55;10.30;99.90
9987;DHT22;5033;46.310;11.214;2022-11-02T02:33:28;10.30;99.90
9987;DHT22;5033;46.310;11.214;2022-11-02T02:35:59;10.30;99.90
9987;DHT22;5033;46.310;11.214;2022-11-02T02:38:33;10.30;99.90
9987;DHT22;5033;46.310;11.214;2022-11-02T02:41:08;10.30;99.90
9987;DHT22;5033;46.310;11.214;2022-11-02T02:43:41;10.30;99.90
9987;DHT22;5033;46.310;11.214;2022-11-02T02:46:14;10.30;99.90
9987;DHT22;5033;46.310;11.214;2022-11-02T02:48:46;10.20;99.90
9987;DHT22;5033;46.310;11.214;2022-11-02T02:51:18;10.20;99.90
9987;DHT22;5033;46.310;11.214;2022-11-02T02:53:48;10.20;99.90
9987;DHT22;5033;46.310;11.214;2022-11-02T02:56:20;10.20;99.90
9987;DHT22;5033;46.310;11.214;2022-11-02T02:58:54;10.20;99.90
9987;DHT22;5033;46.310;11.214;2022-11-02T03:01:22;10.20;99.90
9987;DHT22;5033;46.310;11.214;2022-11-02T03:03:50;10.20;99.90
9987;DHT22;5033;46.310;11.214;2022-11-02T03:06:21;10.20;99.90
9987;DHT22;5033;46.310;11.214;2022-11-02T03:09:02;10.20;99.90
9987;DHT22;5033;46.310;11.214;2022-11-02T03:11:32;10.20;99.90
9987;DHT22;5033;46.310;11.214;2022-11-02T03:14:11;10.20;99.90
9987;DHT22;5033;46.310;11.214;2022-11-02T03:16:55;10.20;99.90
9987;DHT22;5033;46.310;11.214;2022-11-02T03:19:34;10.20;99.90
9987;DHT22;5033;46.310;11.214;2022-11-02T03:22:07;10.20;99.90
9987;DHT22;5033;46.310;11.214;2022-11-02T03:24:44;10.20;99.90
9987;DHT22;5033;46.310;11.214;2022-11-02T03:27:17;10.20;99.90
9987;DHT22;5033;46.310;11.214;2022-11-02T03:29:52;10.10;99.90
9987;DHT22;5033;46.310;11.214;2022-11-02T03:32:23;10.10;99.90
9987;DHT22;5033;46.310;11.214;2022-11-02T03:34:54;10.10;99.90
9987;DHT22;5033;46.310;11.214;2022-11-02T03:37:27;10.10;99.90
9987;DHT22;5033;46.310;11.214;2022-11-02T03:40:01;10.10;99.90
9987;DHT22;5033;46.310;11.214;2022-11-02T03:42:33;10.10;99.90
9987;DHT22;5033;46.310;11.214;2022-11-02T03:45:08;10.00;99.90
9987;DHT22;5033;46.310;11.214;2022-11-02T03:47:37;10.00;99.90
9987;DHT22;5033;46.310;11.214;2022-11-02T03:50:05;9.90;99.90
9987;DHT22;5033;46.310;11.214;2022-11-02T03:52:36;9.90;99.90
9987;DHT22;5033;46.310;11.214;2022-11-02T03:55:08;9.90;99.90
9987;DHT22;5033;46.310;11.214;2022-11-02T03:57:42;9.90;99.90
9987;DHT22;5033;46.310;11.214;2022-11-02T04:00:16;9.90;99.90
9987;DHT22;5033;46.310;11.214;2022-11-02T04:02:48;9.90;99.90
9987;DHT22;5033;46.310;11.214;2022-11-02T04:05:16;9.90;99.90
9987;DHT22;5033;46.310;11.214;2022-11-02T04:07:47;9.90;99.90
9987;DHT22;5033;46.310;11.214;2022-11-02T04:10:33;9.90;99.90
9987;DHT22;5033;46.310;11.214;2022-11-02T04:13:21;9.90;99.90
9987;DHT22;5033;46.310;11.214;2022-11-02T04:16:07;9.80;99.90
9987;DHT22;5033;46.310;11.214;2022-11-02T04:18:34;9.70;99.90
9987;DHT22;5033;46.310;11.214;2022-11-02T04:21:19;9.70;99.90
9987;DHT22;5033;46.310;11.214;2022-11-02T04:23:47;9.60;99.90
9987;DHT22;5033;46.310;11.214;2022-11-02T04:26:31;9.60;99.90
9987;DHT22;5033;46.310;11.214;2022-11-02T04:28:59;9.70;99.90
9987;DHT22;5033;46.310;11.214;2022-11-02T04:31:28;9.70;99.90
9987;DHT22;5033;46.310;11.214;2022-11-02T04:33:56;9.70;99.90
9987;DHT22;5033;46.310;11.214;2022-11-02T04:36:23;9.70;99.90
9987;DHT22;5033;46.310;11.214;2022-11-02T04:38:52;9.60;99.90
9987;DHT22;5033;46.310;11.214;2022-11-02T04:41:19;9.60;99.90
9987;DHT22;5033;46.310;11.214;2022-11-02T04:44:05;9.60;99.90
9987;DHT22;5033;46.310;11.214;2022-11-02T04:46:35;9.60;99.90
9987;DHT22;5033;46.310;11.214;2022-11-02T04:49:03;9.60;99.90
9987;DHT22;5033;46.310;11.214;2022-11-02T04:51:31;9.60;99.90
9987;DHT22;5033;46.310;11.214;2022-11-02T04:53:58;9.60;99.90
9987;DHT22;5033;46.310;11.214;2022-11-02T04:56:27;9.50;99.90
9987;DHT22;5033;46.310;11.214;2022-11-02T04:58:56;9.50;99.90
9987;DHT22;5033;46.310;11.214;2022-11-02T05:01:25;9.50;99.90
9987;DHT22;5033;46.310;11.214;2022-11-02T05:03:55;9.50;99.90
9987;DHT22;5033;46.310;11.214;2022-11-02T05:06:23;9.50;99.90
9987;DHT22;5033;46.310;11.214;2022-11-02T05:08:51;9.50;99.90
9987;DHT22;5033;46.310;11.214;2022-11-02T05:11:19;9.50;99.90
9987;DHT22;5033;46.310;11.214;2022-11-02T05:13:46;9.50;99.90
9987;DHT22;5033;46.310;11.214;2022-11-02T05:16:15;9.50;99.90
9987;DHT22;5033;46.310;11.214;2022-11-02T05:18:43;9.50;99.90
9987;DHT22;5033;46.310;11.214;2022-11-02T05:21:12;9.50;99.90
9987;DHT22;5033;46.310;11.214;2022-11-02T05:23:39;9.40;99.90
9987;DHT22;5033;46.310;11.214;2022-11-02T05:26:09;9.40;99.90
9987;DHT22;5033;46.310;11.214;2022-11-02T05:28:37;9.50;99.90
9987;DHT22;5033;46.310;11.214;2022-11-02T05:31:05;9.40;99.90
9987;DHT22;5033;46.310;11.214;2022-11-02T05:33:33;9.40;99.90
9987;DHT22;5033;46.310;11.214;2022-11-02T05:36:00;9.40;99.90
9987;DHT22;5033;46.310;11.214;2022-11-02T05:38:29;9.40;99.90
9987;DHT22;5033;46.310;11.214;2022-11-02T05:40:58;9.40;99.90
9987;DHT22;5033;46.310;11.214;2022-11-02T05:43:25;9.40;99.90
9987;DHT22;5033;46.310;11.214;2022-11-02T05:45:54;9.40;99.90
9987;DHT22;5033;46.310;11.214;2022-11-02T05:48:23;9.40;99.90
9987;DHT22;5033;46.310;11.214;2022-11-02T05:50:54;9.30;99.90
9987;DHT22;5033;46.310;11.214;2022-11-02T05:53:21;9.30;99.90
9987;DHT22;5033;46.310;11.214;2022-11-02T05:55:51;9.30;99.90
9987;DHT22;5033;46.310;11.214;2022-11-02T05:58:18;9.30;99.90
9987;DHT22;5033;46.310;11.214;2022-11-02T06:00:46;9.30;99.90
9987;DHT22;5033;46.310;11.214;2022-11-02T06:03:13;9.30;99.90
9987;DHT22;5033;46.310;11.214;2022-11-02T06:05:42;9.30;99.90
9987;DHT22;5033;46.310;11.214;2022-11-02T06:08:09;9.30;99.90
9987;DHT22;5033;46.310;11.214;2022-11-02T06:10:37;9.30;99.90
9987;DHT22;5033;46.310;11.214;2022-11-02T06:13:09;9.30;99.90
9987;DHT22;5033;46.310;11.214;2022-11-02T06:15:36;9.40;99.90
9987;DHT22;5033;46.310;11.214;2022-11-02T06:18:04;9.40;99.90
9987;DHT22;5033;46.310;11.214;2022-11-02T06:20:32;9.40;99.90
9987;DHT22;5033;46.310;11.214;2022-11-02T06:23:00;9.40;99.90
9987;DHT22;5033;46.310;11.214;2022-11-02T06:25:27;9.40;99.90
9987;DHT22;5033;46.310;11.214;2022-11-02T06:27:55;9.40;99.90
9987;DHT22;5033;46.310;11.214;2022-11-02T06:30:25;9.40;99.90
9987;DHT22;5033;46.310;11.214;2022-11-02T06:32:53;9.50;99.90
9987;DHT22;5033;46.310;11.214;2022-11-02T06:35:21;9.50;99.90
9987;DHT22;5033;46.310;11.214;2022-11-02T06:37:49;9.60;99.90
9987;DHT22;5033;46.310;11.214;2022-11-02T06:40:17;9.60;99.90
9987;DHT22;5033;46.310;11.214;2022-11-02T06:42:45;9.60;99.90
9987;DHT22;5033;46.310;11.214;2022-11-02T06:45:13;9.60;99.90
9987;DHT22;5033;46.310;11.214;2022-11-02T06:47:42;9.70;99.90
9987;DHT22;5033;46.310;11.214;2022-11-02T06:50:10;9.70;99.90
9987;DHT22;5033;46.310;11.214;2022-11-02T06:52:42;9.80;99.90
9987;DHT22;5033;46.310;11.214;2022-11-02T06:55:11;9.80;99.90
9987;DHT22;5033;46.310;11.214;2022-11-02T06:57:39;9.90;99.90
9987;DHT22;5033;46.310;11.214;2022-11-02T07:00:10;9.90;99.90
9987;DHT22;5033;46.310;11.214;2022-11-02T07:02:38;9.90;99.90
9987;DHT22;5033;46.310;11.214;2022-11-02T07:05:08;10.00;99.90
9987;DHT22;5033;46.310;11.214;2022-11-02T07:07:35;10.70;99.90
9987;DHT22;5033;46.310;11.214;2022-11-02T07:10:05;11.60;99.90
9987;DHT22;5033;46.310;11.214;2022-11-02T07:12:35;12.40;99.90
9987;DHT22;5033;46.310;11.214;2022-11-02T07:15:02;13.10;99.90
9987;DHT22;5033;46.310;11.214;2022-11-02T07:17:29;13.90;99.90
9987;DHT22;5033;46.310;11.214;2022-11-02T07:19:57;14.50;99.90
9987;DHT22;5033;46.310;11.214;2022-11-02T07:22:25;15.00;99.90
9987;DHT22;5033;46.310;11.214;2022-11-02T07:24:53;15.20;99.90
9987;DHT22;5033;46.310;11.214;2022-11-02T07:27:20;15.20;99.90
9987;DHT22;5033;46.310;11.214;2022-11-02T07:29:47;15.20;99.90
9987;DHT22;5033;46.310;11.214;2022-11-02T07:32:15;15.50;99.90
9987;DHT22;5033;46.310;11.214;2022-11-02T07:34:42;15.90;99.90
9987;DHT22;5033;46.310;11.214;2022-11-02T07:37:09;16.20;99.90
9987;DHT22;5033;46.310;11.214;2022-11-02T07:39:39;16.30;99.90
9987;DHT22;5033;46.310;11.214;2022-11-02T07:42:07;16.30;99.90
9987;DHT22;5033;46.310;11.214;2022-11-02T07:44:35;16.60;99.90
9987;DHT22;5033;46.310;11.214;2022-11-02T07:47:02;16.70;99.90
9987;DHT22;5033;46.310;11.214;2022-11-02T07:49:30;16.50;99.90
9987;DHT22;5033;46.310;11.214;2022-11-02T07:51:59;16.20;99.90
9987;DHT22;5033;46.310;11.214;2022-11-02T07:54:26;15.80;99.90
9987;DHT22;5033;46.310;11.214;2022-11-02T07:56:55;15.60;99.90
9987;DHT22;5033;46.310;11.214;2022-11-02T07:59:23;15.60;99.90
9987;DHT22;5033;46.310;11.214;2022-11-02T08:01:50;15.80;99.90
9987;DHT22;5033;46.310;11.214;2022-11-02T08:04:18;16.20;99.90
9987;DHT22;5033;46.310;11.214;2022-11-02T08:06:45;16.30;99.90
9987;DHT22;5033;46.310;11.214;2022-11-02T08:09:12;16.50;99.90
9987;DHT22;5033;46.310;11.214;2022-11-02T08:11:40;16.90;99.90
9987;DHT22;5033;46.310;11.214;2022-11-02T08:14:09;17.20;99.90
9987;DHT22;5033;46.310;11.214;2022-11-02T08:16:37;17.20;99.90
9987;DHT22;5033;46.310;11.214;2022-11-02T08:19:04;17.60;99.90
9987;DHT22;5033;46.310;11.214;2022-11-02T08:21:31;17.90;99.90
9987;DHT22;5033;46.310;11.214;2022-11-02T08:23:59;18.40;99.90
9987;DHT22;5033;46.310;11.214;2022-11-02T08:26:26;18.40;99.90
9987;DHT22;5033;46.310;11.214;2022-11-02T08:28:55;18.50;99.90
9987;DHT22;5033;46.310;11.214;2022-11-02T08:31:24;18.70;99.90
9987;DHT22;5033;46.310;11.214;2022-11-02T08:33:51;18.80;99.90
9987;DHT22;5033;46.310;11.214;2022-11-02T08:36:19;18.90;99.90
9987;DHT22;5033;46.310;11.214;2022-11-02T08:38:46;18.90;99.90
9987;DHT22;5033;46.310;11.214;2022-11-02T08:41:13;18.90;99.90
9987;DHT22;5033;46.310;11.214;2022-11-02T08:43:40;19.00;99.90
9987;DHT22;5033;46.310;11.214;2022-11-02T08:46:09;18.90;99.90
9987;DHT22;5033;46.310;11.214;2022-11-02T08:48:38;18.40;99.90
9987;DHT22;5033;46.310;11.214;2022-11-02T08:51:06;18.70;99.90
9987;DHT22;5033;46.310;11.214;2022-11-02T08:53:34;19.00;99.90
9987;DHT22;5033;46.310;11.214;2022-11-02T08:56:02;19.10;99.90
9987;DHT22;5033;46.310;11.214;2022-11-02T08:58:29;19.10;99.90
9987;DHT22;5033;46.310;11.214;2022-11-02T09:00:57;18.60;99.90
9987;DHT22;5033;46.310;11.214;2022-11-02T09:03:24;18.50;99.90
9987;DHT22;5033;46.310;11.214;2022-11-02T09:05:58;18.10;99.90
9987;DHT22;5033;46.310;11.214;2022-11-02T09:08:25;17.70;99.90
9987;DHT22;5033;46.310;11.214;2022-11-02T09:10:57;17.80;99.90
9987;DHT22;5033;46.310;11.214;2022-11-02T09:13:24;18.00;99.90
9987;DHT22;5033;46.310;11.214;2022-11-02T09:15:55;18.30;99.90
9987;DHT22;5033;46.310;11.214;2022-11-02T09:18:23;18.40;99.90
9987;DHT22;5033;46.310;11.214;2022-11-02T09:20:50;18.50;99.90
9987;DHT22;5033;46.310;11.214;2022-11-02T09:23:21;18.40;99.90
9987;DHT22;5033;46.310;11.214;2022-11-02T09:25:49;18.20;99.90
9987;DHT22;5033;46.310;11.214;2022-11-02T09:28:16;18.10;99.90
9987;DHT22;5033;46.310;11.214;2022-11-02T09:30:44;18.20;99.90
9987;DHT22;5033;46.310;11.214;2022-11-02T09:33:12;18.30;99.90
9987;DHT22;5033;46.310;11.214;2022-11-02T09:35:40;18.20;99.90
9987;DHT22;5033;46.310;11.214;2022-11-02T09:38:08;18.20;99.90
9987;DHT22;5033;46.310;11.214;2022-11-02T09:40:39;18.20;99.90
9987;DHT22;5033;46.310;11.214;2022-11-02T09:43:15;18.30;99.90
9987;DHT22;5033;46.310;11.214;2022-11-02T09:45:52;18.60;99.90
9987;DHT22;5033;46.310;11.214;2022-11-02T09:48:24;18.50;99.90
9987;DHT22;5033;46.310;11.214;2022-11-02T09:50:57;18.40;99.90
9987;DHT22;5033;46.310;11.214;2022-11-02T09:53:37;18.60;99.90
9987;DHT22;5033;46.310;11.214;2022-11-02T09:56:10;18.70;99.90
9987;DHT22;5033;46.310;11.214;2022-11-02T09:58:39;19.00;99.90
9987;DHT22;5033;46.310;11.214;2022-11-02T10:01:18;19.10;99.90
9987;DHT22;5033;46.310;11.214;2022-11-02T10:04:02;19.10;99.90
9987;DHT22;5033;46.310;11.214;2022-11-02T10:06:34;19.40;99.90
9987;DHT22;5033;46.310;11.214;2022-11-02T10:09:08;19.50;99.90
9987;DHT22;5033;46.310;11.214;2022-11-02T10:11:48;19.40;99.90
9987;DHT22;5033;46.310;11.214;2022-11-02T10:14:20;19.50;99.90
9987;DHT22;5033;46.310;11.214;2022-11-02T10:16:54;19.50;99.90
9987;DHT22;5033;46.310;11.214;2022-11-02T10:19:24;19.40;99.90
9987;DHT22;5033;46.310;11.214;2022-11-02T10:21:56;19.20;99.90
9987;DHT22;5033;46.310;11.214;2022-11-02T10:24:28;19.00;99.90
9987;DHT22;5033;46.310;11.214;2022-11-02T10:27:04;18.80;99.90
9987;DHT22;5033;46.310;11.214;2022-11-02T10:29:40;18.60;99.90
9987;DHT22;5033;46.310;11.214;2022-11-02T10:32:11;18.60;99.90
9987;DHT22;5033;46.310;11.214;2022-11-02T10:34:39;18.60;99.90
9987;DHT22;5033;46.310;11.214;2022-11-02T10:37:22;18.60;99.90
9987;DHT22;5033;46.310;11.214;2022-11-02T10:40:02;18.60;99.90
9987;DHT22;5033;46.310;11.214;2022-11-02T10:42:45;18.50;99.90
9987;DHT22;5033;46.310;11.214;2022-11-02T10:45:34;18.30;99.90
9987;DHT22;5033;46.310;11.214;2022-11-02T10:48:11;18.30;99.90
9987;DHT22;5033;46.310;11.214;2022-11-02T10:50:46;18.40;99.90
9987;DHT22;5033;46.310;11.214;2022-11-02T10:53:15;18.60;99.90
9987;DHT22;5033;46.310;11.214;2022-11-02T10:55:50;18.80;99.90
9987;DHT22;5033;46.310;11.214;2022-11-02T10:58:25;18.70;99.90
9987;DHT22;5033;46.310;11.214;2022-11-02T11:01:04;18.70;99.90
9987;DHT22;5033;46.310;11.214;2022-11-02T11:03:31;18.50;99.90
9987;DHT22;5033;46.310;11.214;2022-11-02T11:06:01;18.60;99.90
9987;DHT22;5033;46.310;11.214;2022-11-02T11:08:34;18.60;99.90
9987;DHT22;5033;46.310;11.214;2022-11-02T11:11:24;18.60;99.90
9987;DHT22;5033;46.310;11.214;2022-11-02T11:13:59;18.60;99.90
9987;DHT22;5033;46.310;11.214;2022-11-02T11:16:36;18.70;99.90
9987;DHT22;5033;46.310;11.214;2022-11-02T11:19:05;18.90;99.90
9987;DHT22;5033;46.310;11.214;2022-11-02T11:21:37;18.80;99.90
9987;DHT22;5033;46.310;11.214;2022-11-02T11:24:24;18.90;99.90
9987;DHT22;5033;46.310;11.214;2022-11-02T11:27:01;18.90;99.90
9987;DHT22;5033;46.310;11.214;2022-11-02T11:29:32;19.00;99.90
9987;DHT22;5033;46.310;11.214;2022-11-02T11:32:00;19.10;99.90
9987;DHT22;5033;46.310;11.214;2022-11-02T11:34:31;19.20;99.90
9987;DHT22;5033;46.310;11.214;2022-11-02T11:37:08;19.20;99.90
9987;DHT22;5033;46.310;11.214;2022-11-02T11:39:37;19.30;99.90
9987;DHT22;5033;46.310;11.214;2022-11-02T11:42:13;19.20;99.90
9987;DHT22;5033;46.310;11.214;2022-11-02T11:44:45;18.80;99.90
9987;DHT22;5033;46.310;11.214;2022-11-02T11:47:13;18.70;99.90
9987;DHT22;5033;46.310;11.214;2022-11-02T11:49:46;18.90;99.90
9987;DHT22;5033;46.310;11.214;2022-11-02T11:52:19;19.00;99.90
9987;DHT22;5033;46.310;11.214;2022-11-02T11:55:01;19.10;99.90
9987;DHT22;5033;46.310;11.214;2022-11-02T11:57:30;19.30;99.90
9987;DHT22;5033;46.310;11.214;2022-11-02T12:00:00;19.00;99.90
9987;DHT22;5033;46.310;11.214;2022-11-02T12:02:30;19.10;99.90
9987;DHT22;5033;46.310;11.214;2022-11-02T12:05:10;19.20;99.90
9987;DHT22;5033;46.310;11.214;2022-11-02T12:08:13;19.20;99.90
9987;DHT22;5033;46.310;11.214;2022-11-02T12:11:06;18.90;99.90
9987;DHT22;5033;46.310;11.214;2022-11-02T12:13:58;19.00;99.90
9987;DHT22;5033;46.310;11.214;2022-11-02T12:16:38;19.20;99.90
9987;DHT22;5033;46.310;11.214;2022-11-02T12:19:22;19.30;99.90
9987;DHT22;5033;46.310;11.214;2022-11-02T12:22:06;19.30;99.90
9987;DHT22;5033;46.310;11.214;2022-11-02T12:25:05;19.20;99.90
9987;DHT22;5033;46.310;11.214;2022-11-02T12:27:46;19.20;99.90
9987;DHT22;5033;46.310;11.214;2022-11-02T12:30:17;19.10;99.90
9987;DHT22;5033;46.310;11.214;2022-11-02T12:33:15;19.10;99.90
9987;DHT22;5033;46.310;11.214;2022-11-02T12:35:54;19.00;99.90
9987;DHT22;5033;46.310;11.214;2022-11-02T12:41:51;18.80;99.90
9987;DHT22;5033;46.310;11.214;2022-11-02T12:44:37;19.00;99.90
9987;DHT22;5033;46.310;11.214;2022-11-02T12:47:20;19.20;99.90
9987;DHT22;5033;46.310;11.214;2022-11-02T12:50:10;19.30;99.90
9987;DHT22;5033;46.310;11.214;2022-11-02T12:52:49;19.20;99.90
9987;DHT22;5033;46.310;11.214;2022-11-02T12:55:21;19.10;99.90
9987;DHT22;5033;46.310;11.214;2022-11-02T12:57:58;18.90;99.90
9987;DHT22;5033;46.310;11.214;2022-11-02T13:00:27;18.80;99.90
9987;DHT22;5033;46.310;11.214;2022-11-02T13:03:00;18.60;99.90
9987;DHT22;5033;46.310;11.214;2022-11-02T13:05:47;18.50;99.90
9987;DHT22;5033;46.310;11.214;2022-11-02T13:08:17;18.50;99.90
9987;DHT22;5033;46.310;11.214;2022-11-02T13:10:50;18.60;99.90
9987;DHT22;5033;46.310;11.214;2022-11-02T13:13:26;18.50;99.90
9987;DHT22;5033;46.310;11.214;2022-11-02T13:15:56;18.50;99.90
9987;DHT22;5033;46.310;11.214;2022-11-02T13:18:28;18.40;99.90
9987;DHT22;5033;46.310;11.214;2022-11-02T13:21:01;18.30;99.90
9987;DHT22;5033;46.310;11.214;2022-11-02T13:23:33;18.10;99.90
9987;DHT22;5033;46.310;11.214;2022-11-02T13:26:05;17.90;99.90
9987;DHT22;5033;46.310;11.214;2022-11-02T13:28:41;17.80;99.90
9987;DHT22;5033;46.310;11.214;2022-11-02T13:31:13;17.70;99.90
9987;DHT22;5033;46.310;11.214;2022-11-02T13:33:46;17.60;99.90
9987;DHT22;5033;46.310;11.214;2022-11-02T13:36:17;17.70;99.90
9987;DHT22;5033;46.310;11.214;2022-11-02T13:38:47;17.70;99.90
9987;DHT22;5033;46.310;11.214;2022-11-02T13:41:32;17.60;99.90
9987;DHT22;5033;46.310;11.214;2022-11-02T13:47:07;17.60;99.90
9987;DHT22;5033;46.310;11.214;2022-11-02T13:49:42;17.50;99.90
9987;DHT22;5033;46.310;11.214;2022-11-02T13:52:14;17.50;99.90
9987;DHT22;5033;46.310;11.214;2022-11-02T13:54:43;17.50;99.90
9987;DHT22;5033;46.310;11.214;2022-11-02T13:57:29;17.50;99.90
9987;DHT22;5033;46.310;11.214;2022-11-02T13:59:59;17.50;99.90
9987;DHT22;5033;46.310;11.214;2022-11-02T14:02:30;17.50;99.90
9987;DHT22;5033;46.310;11.214;2022-11-02T14:05:00;17.60;99.90
9987;DHT22;5033;46.310;11.214;2022-11-02T14:07:33;17.60;99.90
9987;DHT22;5033;46.310;11.214;2022-11-02T14:10:07;17.50;99.90
9987;DHT22;5033;46.310;11.214;2022-11-02T14:12:41;17.40;99.90
9987;DHT22;5033;46.310;11.214;2022-11-02T14:15:42;17.30;99.90
9987;DHT22;5033;46.310;11.214;2022-11-02T14:18:12;17.10;99.90
9987;DHT22;5033;46.310;11.214;2022-11-02T14:20:43;17.00;99.90
9987;DHT22;5033;46.310;11.214;2022-11-02T14:23:44;16.90;99.90
9987;DHT22;5033;46.310;11.214;2022-11-02T14:26:33;16.90;99.90
9987;DHT22;5033;46.310;11.214;2022-11-02T14:29:47;16.90;99.90
9987;DHT22;5033;46.310;11.214;2022-11-02T14:32:20;16.80;99.90
9987;DHT22;5033;46.310;11.214;2022-11-02T14:35:04;16.80;99.90
9987;DHT22;5033;46.310;11.214;2022-11-02T14:37:50;16.80;99.90
9987;DHT22;5033;46.310;11.214;2022-11-02T14:40:29;16.80;99.90
9987;DHT22;5033;46.310;11.214;2022-11-02T14:43:38;16.90;99.90
9987;DHT22;5033;46.310;11.214;2022-11-02T14:46:18;17.00;99.90
9987;DHT22;5033;46.310;11.214;2022-11-02T14:48:51;17.00;99.90
9987;DHT22;5033;46.310;11.214;2022-11-02T14:51:22;16.90;99.90
9987;DHT22;5033;46.310;11.214;2022-11-02T14:53:56;16.90;99.90
9987;DHT22;5033;46.310;11.214;2022-11-02T14:56:46;16.80;99.90
9987;DHT22;5033;46.310;11.214;2022-11-02T14:59:17;16.70;99.90
9987;DHT22;5033;46.310;11.214;2022-11-02T15:02:06;16.50;99.90
9987;DHT22;5033;46.310;11.214;2022-11-02T15:04:46;16.40;99.90
9987;DHT22;5033;46.310;11.214;2022-11-02T15:07:18;16.30;99.90
9987;DHT22;5033;46.310;11.214;2022-11-02T15:09:55;16.20;99.90
9987;DHT22;5033;46.310;11.214;2022-11-02T15:12:37;16.20;99.90
9987;DHT22;5033;46.310;11.214;2022-11-02T15:15:29;16.10;99.90
9987;DHT22;5033;46.310;11.214;2022-11-02T15:18:18;16.10;99.90
9987;DHT22;5033;46.310;11.214;2022-11-02T15:21:34;16.00;99.90
9987;DHT22;5033;46.310;11.214;2022-11-02T15:24:14;15.90;99.90
9987;DHT22;5033;46.310;11.214;2022-11-02T15:26:51;15.80;99.90
9987;DHT22;5033;46.310;11.214;2022-11-02T15:32:19;15.70;99.90
9987;DHT22;5033;46.310;11.214;2022-11-02T15:34:49;15.40;99.90
9987;DHT22;5033;46.310;11.214;2022-11-02T15:37:19;15.40;99.90
9987;DHT22;5033;46.310;11.214;2022-11-02T15:39:49;15.30;99.90
9987;DHT22;5033;46.310;11.214;2022-11-02T15:42:26;15.30;99.90
9987;DHT22;5033;46.310;11.214;2022-11-02T15:47:55;15.30;99.90
9987;DHT22;5033;46.310;11.214;2022-11-02T15:50:40;15.10;99.90
9987;DHT22;5033;46.310;11.214;2022-11-02T15:53:31;15.00;99.90
9987;DHT22;5033;46.310;11.214;2022-11-02T15:56:14;15.00;99.90
9987;DHT22;5033;46.310;11.214;2022-11-02T15:58:59;14.90;99.90
9987;DHT22;5033;46.310;11.214;2022-11-02T16:01:30;14.80;99.90
9987;DHT22;5033;46.310;11.214;2022-11-02T16:04:02;14.80;99.90
9987;DHT22;5033;46.310;11.214;2022-11-02T16:06:31;14.70;99.90
9987;DHT22;5033;46.310;11.214;2022-11-02T16:09:02;14.60;99.90
9987;DHT22;5033;46.310;11.214;2022-11-02T16:11:30;14.60;99.90
9987;DHT22;5033;46.310;11.214;2022-11-02T16:14:15;14.60;99.90
9987;DHT22;5033;46.310;11.214;2022-11-02T16:16:46;14.50;99.90
9987;DHT22;5033;46.310;11.214;2022-11-02T16:19:19;14.50;99.90
9987;DHT22;5033;46.310;11.214;2022-11-02T16:21:48;14.50;99.90
9987;DHT22;5033;46.310;11.214;2022-11-02T16:24:15;14.50;99.90
9987;DHT22;5033;46.310;11.214;2022-11-02T16:26:44;14.40;99.90
9987;DHT22;5033;46.310;11.214;2022-11-02T16:29:21;14.40;99.90
9987;DHT22;5033;46.310;11.214;2022-11-02T16:31:50;14.40;99.90
9987;DHT22;5033;46.310;11.214;2022-11-02T16:34:23;14.30;99.90
9987;DHT22;5033;46.310;11.214;2022-11-02T16:36:52;14.30;99.90